Topeka, KS (66611)

11:45 PM CDT die 21o October, anno 2014 (GMT -0500)
South Central Topeka | Change Station
CLOSE
Current Station
Personal Weather Stations
Location: Topeka, KS
Elevation: 946 ft
Nearby Weather Stations

Elev 946 ft 39.03 °N, 95.71 °W | Updated 8 seconds ago

Serena
Serena
60.1 °F
Feels Like 60.1 °F
N
0.0
Ventus Variabilis Ventus from Magis Eurus quam Auster
Gusts 0.0 mph

Hodie
High -- | Low -- °F
--% Chance of Precip.
Yesterday
High -- | Low -- °F
Precip. -- in
7:38 AM 6:35 PM
Waning Crescent, 3% visible
Pressio 30.07 in
Visibilitas 10.0 milia passuum
Clouds Serena
Frigus in quo Ros apparet 48 °F
Umor 63%
Rainfall 0.01 in
Snow Depth Not available.
UV 0 out of 12
Pollen 2.90 out of 12
Air Quality Not available.
Flu Activity No Activity
METAR KFOE 220353Z AUTO 12006KT 10SM CLR 13/07 A3008 RMK AO2 SLP183 T01330072

More Conditions Fewer Conditions

Pressio 30.07 in
Visibilitas 10.0 milia passuum
Clouds Serena
Frigus in quo Ros apparet 48 °F
Umor 63%
Rainfall 0.01 in
Snow Depth Not available.
UV 0 out of 12
Pollen 2.90 out of 12
Air Quality Not available.
Flu Activity No Activity
METAR KFOE 220353Z AUTO 12006KT 10SM CLR 13/07 A3008 RMK AO2 SLP183 T01330072

More Conditions Fewer Conditions

10-Day Weather Forecast

Almanac

Astronomy

Oct. 21, 2014 Rise Set
Actual Time 7:38 AM CDT 6:35 PM CDT
Civil Twilight 7:11 AM CDT 7:02 PM CDT
Nautical Twilight 6:40 AM CDT 7:33 PM CDT
Astronomical Twilight 6:09 AM CDT 8:04 PM CDT
Moon 5:24 AM CDT (10/21) 5:29 PM CDT (10/21)
Length Of Visible Light 11h 51m
Length of Day
10h 57m
Tomorrow will be 2m 24s shorter.
Waning Crescent, 3% of the Moon is Illuminated
Oct 22
Waning Crescent
Oct 23
New
Oct 30
First Quarter
Nov 6
Full
Nov 14
Last Quarter

Yesterday's Extremes

State Highs State Lows

Community

WunderPhotos

Upload Photos

1,763,882 photos uploaded!

Nearby

Snow Depth

Station Depth Elevation
No new snow has been reported.

Earthquake Activity

City Distance Mag. Time & Date
No recent earthquake activity has been reported nearby.
Minimum magnitude displayed is 2.5.

Coastal Water Temperatures

Locus Calor
No Stations Reporting

Nearby Weather Stations